Terminal Aerodrome Forecast
Issued by NWS

Home | Current Version | Previous Version | Text Only | Print | Product List | Glossary On
Versions: 1 2 3 4 5 6 7 8 9 10 11 12 13 14 15 16
000
FTUS43 KSGF 282000 AAA
TAFJLN
TAF AMD
KJLN 282054Z 2821/2918 22010G20KT P6SM SCT120
     FM282300 26010KT P6SM VCTS SCT050CB BKN080
     FM290800 26004KT P6SM SCT250
     FM291500 30004KT P6SM SKC=

USA.gov is the U.S. government's official web portal to all federal, state and local government web resources and services.